首页
METAR-TAF:

METAR-TAF

机场 :

图兹拉国际机场

图兹拉, 波斯尼亚和黑塞哥维那

纬度: 44-33N, 经度: 018-42E, 海拔: 306米

当前天气观测

该预报发布于32分钟前的02:00 UTC
风速3节,风向
温度 -5°C
湿度 100%
气压 1023 hPa
能见度10公里或以上
1500米以下无云,无积雨云

METAR: LQTZ 210200Z 10003KT CAVOK M05/M05 Q1023

时间: 03:32 (02:32 UTC)

预报

该预报发布于3小时和32分钟前的23:00 UTC
预报有效从21日的 00点(UTC)到 21日的 24点(UTC)
风速2节,风向多变
能见度10公里或以上
1500米以下无云,无积雨云
几率 30% :
短暂存在
从 21日的 04点(UTC)到 21日的 07点(UTC)
能見度: 3000
轻雾
短暂存在
从 21日的 10点(UTC)到 21日的 18点(UTC)
风速12节,风向

TAF: LQTZ 202300Z 2100/2124 VRB02KT CAVOK TX10/2113Z TNM06/2106Z PROB30 TEMPO 2104/2107 3000 BR TEMPO 2110/2118 35012KT

超过4000个机场的气象观测和天气预报(METAR&TAF报告)。

可查询的气象台以黄色和红色小点在地图上表示。

将鼠标移到小点上方,可查看气象台名称。

然后点击查看天气观测和预报。

如需切换地图:点击带黑十字的绿色按钮放大地图;点击带横线的绿色按钮缩小地图;或者点击绿色箭头查看邻近地区的地图。


METAR-TAF: